Nearby METAR Reports


Data Updates Approximately Every Four Hours

METAR is the international standard code format for hourly surface weather observations which is analogous to the SA coding currently used in the US. The acronym roughly translates from French as Aviation Routine Weather Report. SPECI is merely the code name given to METAR formatted products which are issued on a special non-routine basis as dictated by changing meteorological conditions. The SPECI acronym roughly translates as Aviation Selected Special Weather Report.

KSLH - Cheboygan, Michigan, USA
Distance from station: W 9mi, 14km
Updated: 06/24/2019 9:38am
Drizzle, Overcast
Drizzle, Overcast
 Wind from SE
Wind: SE 6 mph , 9 km/h
Temperature: 59°F , 15°C
Dew Point: 59°F , 15°C
Humidity: 100%
Barometer: 29.65 inHg , 1004.1 hPa
Summary: Drizzle
Clouds: Overcast
Visibility: 4 miles , 6 km
Cloud details: Overcast 500 ft
2019/06/24 13:38 KSLH 241338Z AUTO 13005KT 4SM DZ OVC005 15/15 A2965 RMK AO2 T01500147
KMCD - Mackinac Island, Michigan, USA
Distance from station: NW 19mi, 31km
Updated: 06/24/2019 9:55am
Rain, Overcast
Rain, Overcast
 Wind from E
Wind: E 13 mph , 20 km/h, Gust: 22 mph , 35 km/h
Temperature: 54°F , 12°C
Dew Point: 54°F , 12°C
Humidity: 100%
Barometer: 29.65 inHg , 1004.1 hPa
Summary: Rain
Clouds: Overcast
Visibility: 3/4 mile , 1.2 km
Cloud details: Mostly cloudy 200 ft
Overcast 1200 ft
2019/06/24 13:55 KMCD 241355Z AUTO 09011G19KT 3/4SM RA BKN002 OVC012 12/12 A2965 RMK AO2 P0012 T01230123
 
KPLN - Pellston, Michigan, USA
Distance from station: WSW 24mi, 38km
Updated: 06/24/2019 9:54am
Light rain, Mist, Overcast
Light rain, Mist, Overcast
 Wind from SE
Wind: SE 8 mph , 13 km/h
Temperature: 61°F , 16°C
Dew Point: 59°F , 15°C
Humidity: 94%
Barometer: 29.64 inHg , 1003.7 hPa
Summary: Light rain, Mist
Clouds: Overcast
Visibility: 2 miles , 3 km
Cloud details: Overcast 400 ft
2019/06/24 13:54 KPLN 241354Z AUTO 13007KT 2SM -RA BR OVC004 16/15 A2964 RMK AO2 SLP036 P0006 T01560150
KPZQ - Rogers City, Michigan, USA
Distance from station: SE 31mi, 50km
Updated: 06/24/2019 9:55am
Light rain, Overcast
Light rain, Overcast
 Wind from SE
Wind: SE 10 mph , 17 km/h
Temperature: 59°F , 15°C
Dew Point: 55°F , 13°C
Humidity: 88%
Barometer: 29.70 inHg , 1005.8 hPa
Summary: Light rain
Clouds: Overcast
Visibility: 3 miles , 5 km
Cloud details: Partly cloudy 700 ft
Mostly cloudy 2500 ft
Overcast 5000 ft
2019/06/24 13:55 KPZQ 241355Z AUTO 14009KT 3SM -RA SCT007 BKN025 OVC050 15/13 A2970 RMK AO2 T01450134
 
KMGN - Harbor Springs, Michigan, USA
Distance from station: WSW 32mi, 52km
Updated: 06/24/2019 9:55am
Drizzle, Overcast
Drizzle, Overcast
 Wind from ENE
Wind: ENE 8 mph , 13 km/h
Temperature: 59°F , 15°C
Dew Point: 59°F , 15°C
Humidity: 100%
Barometer: 29.63 inHg , 1003.4 hPa
Summary: Drizzle
Clouds: Overcast
Visibility: 2 1/2 miles , 4 km
Cloud details: Mostly cloudy 700 ft
Overcast 1900 ft
2019/06/24 13:55 KMGN 241355Z AUTO 07007KT 2 1/2SM DZ BKN007 OVC019 15/15 A2963 RMK AO2 T01580152
KDRM - Drummond Is, Michigan, USA
Distance from station: NE 36mi, 59km
Updated: 06/24/2019 9:36am
Overcast
Overcast
 Wind from SE
Wind: SE 9 mph , 15 km/h, Gust: 20 mph , 31 km/h
Temperature: 61°F , 16°C
Dew Point: 50°F , 10°C
Humidity: 68%
Barometer: 29.71 inHg , 1006.1 hPa
Clouds: Overcast
Visibility: 10 miles , 16 km
Cloud details: Overcast 4400 ft
2019/06/24 13:36 KDRM 241336Z AUTO 14008G17KT 10SM OVC044 16/10 A2971 RMK AO2 T01580095
 
KCIU - Chippewa Intl, Michigan, USA
Distance from station: N 41mi, 66km
Updated: 06/24/2019 9:56am
Light rain, Mist, Overcast
Light rain, Mist, Overcast
 Wind from ESE
Wind: ESE 17 mph , 28 km/h, Gust: 26 mph , 43 km/h
Temperature: 57°F , 14°C
Dew Point: 55°F , 13°C
Humidity: 94%
Barometer: 29.68 inHg , 1005.1 hPa
Summary: Light rain, Mist
Clouds: Overcast
Visibility: 4 miles , 6 km
Cloud details: Few Clouds 3100 ft
Mostly cloudy 4000 ft
Overcast 5000 ft
2019/06/24 13:56 KCIU 241356Z AUTO 12015G23KT 4SM -RA BR FEW031 BKN040 OVC050 14/13 A2968 RMK AO2 RAB26 SLP050 P0001 T01390128
KGLR - Gaylord, Michigan, USA
Distance from station: SSW 48mi, 77km
Updated: 06/24/2019 9:53am
Light rain, Mist, Overcast
Light rain, Mist, Overcast
 Wind from SE
Wind: SE 9 mph , 15 km/h
Temperature: 61°F , 16°C
Dew Point: 61°F , 16°C
Humidity: 100%
Barometer: 29.66 inHg , 1004.4 hPa
Summary: Light rain, Mist
Clouds: Overcast
Visibility: 4 miles , 6 km
Cloud details: Overcast 400 ft
2019/06/24 13:53 KGLR 241353Z AUTO 13008KT 4SM -RA BR OVC004 16/16 A2966 RMK AO2 SLP038 P0003 T01560156
 
KCVX - Charlevoix, Michigan, USA
Distance from station: WSW 52mi, 83km
Updated: 06/24/2019 9:55am
Overcast
Overcast
 Wind from SE
Wind: SE 9 mph , 15 km/h
Temperature: 66°F , 19°C
Dew Point: 63°F , 17°C
Humidity: 88%
Barometer: 29.64 inHg , 1003.7 hPa
Clouds: Overcast
Visibility: 7 miles , 11 km
Cloud details: Partly cloudy 800 ft
Overcast 1800 ft
2019/06/24 13:55 KCVX 241355Z AUTO 14008KT 7SM SCT008 OVC018 19/17 A2964 RMK AO2 T01870166
KANJ - Sault Ste Marie, Michigan, USA
Distance from station: N 56mi, 89km
Updated: 06/24/2019 9:55am
Light rain, Overcast
Light rain, Overcast
 Wind from ESE
Wind: ESE 8 mph , 13 km/h
Temperature: 61°F , 16°C
Dew Point: 54°F , 12°C
Humidity: 77%
Barometer: 29.69 inHg , 1005.4 hPa
Summary: Light rain
Clouds: Overcast
Visibility: 10 miles , 16 km
Cloud details: Mostly cloudy 4500 ft
Overcast 5500 ft
2019/06/24 13:55 KANJ 241355Z AUTO 11007KT 10SM -RA BKN045 OVC055 16/12 A2969 RMK AO2 RAB49 SLP050 P0000 T01610117
 
KAPN - Alpena, Michigan, USA
Distance from station: SE 56mi, 89km
Updated: 06/24/2019 9:54am
Light rain, Mist, Overcast
Light rain, Mist, Overcast
 Wind from ESE
Wind: ESE 8 mph , 13 km/h
Temperature: 57°F , 14°C
Dew Point: 54°F , 12°C
Humidity: 88%
Barometer: 29.71 inHg , 1006.1 hPa
Summary: Light rain, Mist
Clouds: Overcast
Visibility: 2 miles , 3 km
Cloud details: Mostly cloudy 2800 ft
Overcast 3200 ft
2019/06/24 13:54 KAPN 241354Z 11007KT 2SM -RA BR BKN028 OVC032 14/12 A2971 RMK AO2 SLP060 P0004 T01390122
CYAM - Sault Ste Marie, Ontario, Canada
Distance from station: N 56mi, 90km
Updated: 06/24/2019 9:34am
Light rain, Showers, Overcast
Light rain, Showers, Overcast
 Wind from E
Wind: E 10 mph , 17 km/h
Temperature: 61°F , 16°C
Dew Point: 54°F , 12°C
Humidity: 77%
Barometer: 29.68 inHg , 1005.1 hPa
Summary: Light rain, Showers
Clouds: Overcast
Visibility: 10 miles , 16 km
Cloud details: Partly cloudy 4800 ft
Mostly cloudy 8400 ft
Overcast 11000 ft
2019/06/24 13:34 CYAM 241334Z 08009KT 10SM -SHRA SCT048 BKN084 OVC110 16/12 A2968 RMK CU3AC4AC1 SLP052 DENSITY ALT 1200FT
 
KSJX - Beaver Island, Michigan, USA
Distance from station: W 60mi, 96km
Updated: 06/24/2019 9:55am
Mist, Overcast
Mist, Overcast
 Wind from E
Wind: E 7 mph , 11 km/h
Temperature: 57°F , 14°C
Dew Point: 57°F , 14°C
Humidity: 100%
Barometer: 29.62 inHg , 1003 hPa
Summary: Mist
Clouds: Overcast
Visibility: 2 miles , 3 km
Cloud details: Overcast 600 ft
2019/06/24 13:55 KSJX 241355Z AUTO 10006KT 2SM BR OVC006 14/14 A2962 RMK AO2 T01440140
KACB - Bellaire, Michigan, USA
Distance from station: SW 63mi, 102km
Updated: 06/24/2019 9:55am
Overcast
Overcast
 Wind from S
Wind: S 5 mph , 7 km/h
Temperature: 68°F , 20°C
Dew Point: 63°F , 17°C
Humidity: 83%
Barometer: 29.62 inHg , 1003 hPa
Clouds: Overcast
Visibility: 10 miles , 16 km
Cloud details: Overcast 1200 ft
2019/06/24 13:55 KACB 241355Z AUTO 18004KT 10SM OVC012 20/17 A2962 RMK AO2 T02010165
 
CWNL - Great Duck Island, Ontario, Canada
Distance from station: E 66mi, 106km
Updated: 06/24/2019 9:00am

 Wind from ESE
Wind: ESE 9 mph , 15 km/h, Gust: 17 mph , 28 km/h
Temperature: 57°F , 14°C
Dew Point: 46°F , 8°C
Humidity: 67%
2019/06/24 13:00 CWNL 241300Z AUTO 11008G15KT 14/08 RMK AO1 SLP069 T01420081 56011
KERY - Newberry, Michigan, USA
Distance from station: NW 69mi, 112km
Updated: 06/24/2019 9:35am
Mist, Overcast
Mist, Overcast
 Wind from E
Wind: E 7 mph , 11 km/h
Temperature: 57°F , 14°C
Dew Point: 54°F , 12°C
Humidity: 88%
Barometer: 29.63 inHg , 1003.4 hPa
Summary: Mist
Clouds: Overcast
Visibility: 2 1/2 miles , 4 km
Cloud details: Overcast 600 ft
2019/06/24 13:35 KERY 241335Z AUTO 09006KT 2 1/2SM BR OVC006 14/12 A2963 RMK AO2 T01370123
 
KGOV - Grayling Af, Michigan, USA
Distance from station: SSW 70mi, 113km
Updated: 06/24/2019 9:43am
Overcast
Overcast
 Wind from SE
Wind: SE 12 mph , 19 km/h
Temperature: 63°F , 17°C
Dew Point: 63°F , 17°C
Humidity: 100%
Barometer: 29.65 inHg , 1004.1 hPa
Clouds: Overcast
Cloud details: Overcast 500 ft
2019/06/24 13:43 KGOV 241343Z AUTO 13010KT M M OVC005 17/17 A2965 RMK AO2 SLP043 PWINO $